Página principal
METAR-TAF:

METAR-TAF

Aeroportos :

Aeroporto Internacional de Mehrabad

Teerã, Irão

latitude: 35-41N, longitude: 051-21E, altura: 1204 m

Observação actual do tempo

O boletim foi feito há 25 minutos, às 08:30 UTC
Vento 8 kt de sul
Temperatura 21°C
Humidade 17%
Pressão 1018 hPa
Visibilidade 10 km ou mais
Poucas nuvensa uma altura de 3500 ft

METAR: OIII 300830Z 17008KT 9999 FEW035 21/M05 Q1018 A3007 NOSIG

Hora: 12:25 (08:55 UTC)

Previsão

O boletim foi feito há 3 horas e 5 minutos, às 05:50 UTC
Previsão válida de 30 às 06 UTC a 01 às 12 UTC
Vento 10 kt de sul
Visibilidade: 8000 m
Poucas nuvensa uma altura de 4000 ft
Nuvens dispersasa uma altura de 10000 ft
Temporariamente
de 30 às 10 UTC a 30 às 15 UTC
Vento 10 kt de oes-sudoeste
Poucas nuvensa uma altura de 3500 ft, Cumulonimbus.
Nuvens dispersasa uma altura de 4000 ft
Nuvens fragmentadasa uma altura de 10000 ft

TAF: OIII 300550Z 3006/0112 17010KT 8000 FEW040 SCT100 TEMPO 3010/3015 25010KT FEW035CB SCT040 BKN100

Observações e previsões do tempo de mais de 4000 aeroportos (mensagens METAR e TAF).

As estações disponíveis são os pontos amarelos e vermelhos sobre o mapa.

Mova o rato sobre o mapa para ver o nome da estação.

Depois clique no ponto para visualizar as observações e previsões meteorológicas.

Para alterar o mapa : clique nos botões verdes com uma cruz preta para aumentar o zoom; no botão verde com uma pitada de zoom; ou nas setas verdes para mapas adjacentes.


METAR-TAF: